Nordic Pia — 9V2534 — position and weather

sailwx.info

Track history (hours):
 
Tides and Currents Weather Stations Pressure Air Temp Water Temp Dewpoint Dewpoint Depression Visibility Wind Speed Wind Dir Waves Ship Positions

Nordic Pia

Last reported at 2017-Oct-22 04:29 UTC. Time now 2017-Oct-22 04:57 UTC.
Position N 51°21' E 003°46'.

Length 183 m; draft 8.3 m.

Type: Ship. MMSI: 564517000.

Date/timePositionNaut miles runAvg speedWind from/ knotsBaromVisibWave heightAir tempDewpointWater temp
2017-Oct-22 04:29N 51°21' E 003°46'0 0.0
2017-Oct-22 03:59N 51°21' E 003°46'0 0.0
2017-Oct-22 03:29N 51°21' E 003°46'0 0.0
2017-Oct-22 02:53N 51°21' E 003°46'0 0.0
2017-Oct-22 02:29N 51°21' E 003°46'0 0.0
2017-Oct-22 01:59N 51°21' E 003°46'0 0.0
2017-Oct-22 01:29N 51°21' E 003°46'0 0.0
2017-Oct-22 00:53N 51°21' E 003°46'0 0.0
2017-Oct-22 00:29N 51°21' E 003°46'0 0.0
2017-Oct-21 23:59N 51°21' E 003°46'0 0.0
2017-Oct-21 23:29N 51°21' E 003°46'0 0.0
2017-Oct-21 22:56N 51°21' E 003°46'0 0.0
2017-Oct-21 22:29N 51°21' E 003°46'0 0.0
2017-Oct-21 21:59N 51°21' E 003°46'0 0.0
2017-Oct-21 21:29N 51°21' E 003°46'0 0.0
2017-Oct-21 20:59N 51°21' E 003°46'0 0.0
2017-Oct-21 20:29N 51°21' E 003°46'0 0.0
2017-Oct-21 19:59N 51°21' E 003°46'0 0.0
2017-Oct-21 19:29N 51°21' E 003°46'0 0.0
2017-Oct-21 18:59N 51°21' E 003°46'0 0.0
2017-Oct-21 18:29N 51°21' E 003°46'0 0.0
2017-Oct-21 17:59N 51°21' E 003°46'0 0.0
2017-Oct-21 17:29N 51°21' E 003°46'0 0.0
2017-Oct-21 16:53N 51°21' E 003°46'0 0.0
2017-Oct-21 16:29N 51°21' E 003°46'0 0.0
2017-Oct-21 15:59N 51°21' E 003°46'0 0.0
2017-Oct-21 15:29N 51°21' E 003°46'0 0.0
2017-Oct-21 15:01N 51°21' E 003°46'0 0.2
2017-Oct-21 14:30N 51°21' E 003°46'9 8.5
2017-Oct-21 13:30N 51°26' E 003°35'815.2
2017-Oct-21 13:00N 51°24' E 003°23'815.5
2017-Oct-21 12:31N 51°24' E 003°11'714.0
2017-Oct-21 12:01N 51°23' E 002°59'713.5
2017-Oct-21 11:30N 51°21' E 002°49'4 8.7
2017-Oct-21 11:00N 51°22' E 002°42'4 7.4
2017-Oct-21 10:26N 51°22' E 002°35'3 7.0
2017-Oct-21 09:57N 51°25' E 002°35'189 9.2
2017-Oct-20 13:28N 54°19' E 000°31'612.6
2017-Oct-20 13:00N 54°21' E 000°22'612.8
2017-Oct-20 12:30N 54°24' E 000°12'612.6
2017-Oct-20 12:00N 54°26' E 000°02'612.4
2017-Oct-20 11:30N 54°28' W 000°08'612.2
2017-Oct-20 11:00N 54°31' W 000°18'612.2
2017-Oct-20 10:30N 54°33' W 000°28'1011.8
2017-Oct-20 09:42N 54°37' W 000°43'212.0
2017-Oct-20 09:30N 54°37' W 000°47'611.8
2017-Oct-20 09:00N 54°40' W 000°56'3 6.8
2017-Oct-20 08:30N 54°41' W 001°02'3 0.1
2017-Oct-19 04:06N 54°42' W 001°06'0 5.6
2017-Oct-19 04:00N 54°42' W 001°06'611.7
2017-Oct-19 03:29N 54°44' W 000°56'3 6.7
2017-Oct-19 03:00N 54°45' W 000°51'41110.7
2017-Oct-17 12:43N 57°48' E 010°12'311.9
2017-Oct-17 12:30N 57°48' E 010°17'611.9
2017-Oct-17 12:00N 57°48' E 010°28'611.4
2017-Oct-17 11:31N 57°48' E 010°39'611.5
2017-Oct-17 10:58N 57°46' E 010°50'511.1
2017-Oct-17 10:30N 57°42' E 010°57'611.9
2017-Oct-17 10:00N 57°38' E 011°05'612.2
2017-Oct-17 09:30N 57°34' E 011°14'612.4
2017-Oct-17 09:00N 57°30' E 011°22'612.0
2017-Oct-17 08:30N 57°25' E 011°28'612.8
2017-Oct-17 08:00N 57°19' E 011°32'712.7
2017-Oct-17 07:29N 57°12' E 011°36'612.9
2017-Oct-17 07:00N 57°07' E 011°40'713.0
2017-Oct-17 06:27N 57°00' E 011°44'1512.3
2017-Oct-17 05:16N 56°46' E 011°53'611.3
2017-Oct-17 04:42N 56°40' E 011°49'312.4
2017-Oct-17 04:26N 56°37' E 011°46'512.6
2017-Oct-17 04:00N 56°33' E 011°41'612.5
2017-Oct-17 03:31N 56°27' E 011°34'712.6
2017-Oct-17 03:00N 56°22' E 011°28'712.4
2017-Oct-17 02:28N 56°16' E 011°23'4312.5
2017-Oct-16 23:03N 55°38' E 010°47'112.4
2017-Oct-16 22:58N 55°37' E 010°48'612.4
2017-Oct-16 22:28N 55°32' E 010°52'612.0
2017-Oct-16 21:59N 55°27' E 010°57'711.3
2017-Oct-16 21:22N 55°20' E 011°02'411.6
2017-Oct-16 21:01N 55°16' E 011°04'510.0
2017-Oct-16 20:30N 55°11' E 011°04'510.8
2017-Oct-16 20:00N 55°07' E 010°59'611.8
2017-Oct-16 19:31N 55°01' E 010°59'611.5
2017-Oct-16 19:01N 54°56' E 010°53'612.3
2017-Oct-16 18:31N 54°50' E 010°50'612.3
2017-Oct-16 18:00N 54°44' E 010°47'510.7
2017-Oct-16 17:30N 54°40' E 010°51'612.6
2017-Oct-16 17:00N 54°36' E 011°00'612.5
2017-Oct-16 16:31N 54°35' E 011°11'612.7
2017-Oct-16 16:01N 54°33' E 011°21'612.4
2017-Oct-16 15:31N 54°30' E 011°31'713.0
2017-Oct-16 15:00N 54°28' E 011°41'1313.0
2017-Oct-16 14:00N 54°26' E 012°03'611.4
2017-Oct-16 13:31N 54°28' E 012°12'612.2
2017-Oct-16 13:01N 54°34' E 012°15'4 8.5
2017-Oct-16 12:31N 54°38' E 012°18'1612.1
2017-Oct-16 11:11N 54°47' E 012°42'312.0
2017-Oct-16 10:58N 54°48' E 012°46'1011.8
2017-Oct-16 10:07N 54°52' E 013°02'2212.3
2017-Oct-16 08:21N 54°59' E 013°38'711.8
2017-Oct-16 07:46N 55°01' E 013°49'712.2
2017-Oct-16 07:11N 55°04' E 014°01'312.2
2017-Oct-16 06:58N 55°05' E 014°05'612.3
2017-Oct-16 06:31N 55°09' E 014°11'812.5
2017-Oct-16 05:54N 55°15' E 014°20'512.5
2017-Oct-16 05:30N 55°19' E 014°25'612.5
2017-Oct-16 05:00N 55°24' E 014°32'812.2
2017-Oct-16 04:21N 55°29' E 014°43'612.2
2017-Oct-16 03:53N 55°32' E 014°51'812.2
2017-Oct-16 03:14N 55°35' E 015°04'312.4
2017-Oct-16 03:00N 55°37' E 015°08'612.2
2017-Oct-16 02:30N 55°39' E 015°18'712.1
2017-Oct-16 01:55N 55°41' E 015°31'512.5
2017-Oct-16 01:31N 55°42' E 015°39'612.7
2017-Oct-16 01:00N 55°43' E 015°50'612.7
2017-Oct-16 00:30N 55°45' E 016°01'612.7
2017-Oct-16 00:00N 55°47' E 016°12'612.6
2017-Oct-15 23:31N 55°48' E 016°23'  
Track history (hours):
 
Tides and Currents Weather Stations Pressure Air Temp Water Temp Dewpoint Dewpoint Depression Visibility Wind Speed Wind Dir Waves Ship Positions

Nordic Pia

Last reported at 2017-Oct-22 04:29 UTC. Time now 2017-Oct-22 04:57 UTC.
Position N 51°21' E 003°46'.

Length 183 m; draft 8.3 m.

Type: Ship. MMSI: 564517000.

Date/timePositionNaut miles runAvg speedWind from/ knotsBaromVisibWave heightAir tempDewpointWater temp
2017-Oct-22 04:29N 51°21' E 003°46'0 0.0
2017-Oct-22 03:59N 51°21' E 003°46'0 0.0
2017-Oct-22 03:29N 51°21' E 003°46'0 0.0
2017-Oct-22 02:53N 51°21' E 003°46'0 0.0
2017-Oct-22 02:29N 51°21' E 003°46'0 0.0
2017-Oct-22 01:59N 51°21' E 003°46'0 0.0
2017-Oct-22 01:29N 51°21' E 003°46'0 0.0
2017-Oct-22 00:53N 51°21' E 003°46'0 0.0
2017-Oct-22 00:29N 51°21' E 003°46'0 0.0
2017-Oct-21 23:59N 51°21' E 003°46'0 0.0
2017-Oct-21 23:29N 51°21' E 003°46'0 0.0
2017-Oct-21 22:56N 51°21' E 003°46'0 0.0
2017-Oct-21 22:29N 51°21' E 003°46'0 0.0
2017-Oct-21 21:59N 51°21' E 003°46'0 0.0
2017-Oct-21 21:29N 51°21' E 003°46'0 0.0
2017-Oct-21 20:59N 51°21' E 003°46'0 0.0
2017-Oct-21 20:29N 51°21' E 003°46'0 0.0
2017-Oct-21 19:59N 51°21' E 003°46'0 0.0
2017-Oct-21 19:29N 51°21' E 003°46'0 0.0
2017-Oct-21 18:59N 51°21' E 003°46'0 0.0
2017-Oct-21 18:29N 51°21' E 003°46'0 0.0
2017-Oct-21 17:59N 51°21' E 003°46'0 0.0
2017-Oct-21 17:29N 51°21' E 003°46'0 0.0
2017-Oct-21 16:53N 51°21' E 003°46'0 0.0
2017-Oct-21 16:29N 51°21' E 003°46'0 0.0
2017-Oct-21 15:59N 51°21' E 003°46'0 0.0
2017-Oct-21 15:29N 51°21' E 003°46'0 0.0
2017-Oct-21 15:01N 51°21' E 003°46'0 0.2
2017-Oct-21 14:30N 51°21' E 003°46'9 8.5
2017-Oct-21 13:30N 51°26' E 003°35'815.2
2017-Oct-21 13:00N 51°24' E 003°23'815.5
2017-Oct-21 12:31N 51°24' E 003°11'714.0
2017-Oct-21 12:01N 51°23' E 002°59'713.5
2017-Oct-21 11:30N 51°21' E 002°49'4 8.7
2017-Oct-21 11:00N 51°22' E 002°42'4 7.4
2017-Oct-21 10:26N 51°22' E 002°35'3 7.0
2017-Oct-21 09:57N 51°25' E 002°35'189 9.2
2017-Oct-20 13:28N 54°19' E 000°31'612.6
2017-Oct-20 13:00N 54°21' E 000°22'612.8
2017-Oct-20 12:30N 54°24' E 000°12'612.6
2017-Oct-20 12:00N 54°26' E 000°02'612.4
2017-Oct-20 11:30N 54°28' W 000°08'612.2
2017-Oct-20 11:00N 54°31' W 000°18'612.2
2017-Oct-20 10:30N 54°33' W 000°28'1011.8
2017-Oct-20 09:42N 54°37' W 000°43'212.0
2017-Oct-20 09:30N 54°37' W 000°47'611.8
2017-Oct-20 09:00N 54°40' W 000°56'3 6.8
2017-Oct-20 08:30N 54°41' W 001°02'3 0.1
2017-Oct-19 04:06N 54°42' W 001°06'0 5.6
2017-Oct-19 04:00N 54°42' W 001°06'611.7
2017-Oct-19 03:29N 54°44' W 000°56'3 6.7
2017-Oct-19 03:00N 54°45' W 000°51'41110.7
2017-Oct-17 12:43N 57°48' E 010°12'311.9
2017-Oct-17 12:30N 57°48' E 010°17'611.9
2017-Oct-17 12:00N 57°48' E 010°28'611.4
2017-Oct-17 11:31N 57°48' E 010°39'611.5
2017-Oct-17 10:58N 57°46' E 010°50'511.1
2017-Oct-17 10:30N 57°42' E 010°57'611.9
2017-Oct-17 10:00N 57°38' E 011°05'612.2
2017-Oct-17 09:30N 57°34' E 011°14'612.4
2017-Oct-17 09:00N 57°30' E 011°22'612.0
2017-Oct-17 08:30N 57°25' E 011°28'612.8
2017-Oct-17 08:00N 57°19' E 011°32'712.7
2017-Oct-17 07:29N 57°12' E 011°36'612.9
2017-Oct-17 07:00N 57°07' E 011°40'713.0
2017-Oct-17 06:27N 57°00' E 011°44'1512.3
2017-Oct-17 05:16N 56°46' E 011°53'611.3
2017-Oct-17 04:42N 56°40' E 011°49'312.4
2017-Oct-17 04:26N 56°37' E 011°46'512.6
2017-Oct-17 04:00N 56°33' E 011°41'612.5
2017-Oct-17 03:31N 56°27' E 011°34'712.6
2017-Oct-17 03:00N 56°22' E 011°28'712.4
2017-Oct-17 02:28N 56°16' E 011°23'4312.5
2017-Oct-16 23:03N 55°38' E 010°47'112.4
2017-Oct-16 22:58N 55°37' E 010°48'612.4
2017-Oct-16 22:28N 55°32' E 010°52'612.0
2017-Oct-16 21:59N 55°27' E 010°57'711.3
2017-Oct-16 21:22N 55°20' E 011°02'411.6
2017-Oct-16 21:01N 55°16' E 011°04'510.0
2017-Oct-16 20:30N 55°11' E 011°04'510.8
2017-Oct-16 20:00N 55°07' E 010°59'611.8
2017-Oct-16 19:31N 55°01' E 010°59'611.5
2017-Oct-16 19:01N 54°56' E 010°53'612.3
2017-Oct-16 18:31N 54°50' E 010°50'612.3
2017-Oct-16 18:00N 54°44' E 010°47'510.7
2017-Oct-16 17:30N 54°40' E 010°51'612.6
2017-Oct-16 17:00N 54°36' E 011°00'612.5
2017-Oct-16 16:31N 54°35' E 011°11'612.7
2017-Oct-16 16:01N 54°33' E 011°21'612.4
2017-Oct-16 15:31N 54°30' E 011°31'713.0
2017-Oct-16 15:00N 54°28' E 011°41'1313.0
2017-Oct-16 14:00N 54°26' E 012°03'611.4
2017-Oct-16 13:31N 54°28' E 012°12'612.2
2017-Oct-16 13:01N 54°34' E 012°15'4 8.5
2017-Oct-16 12:31N 54°38' E 012°18'1612.1
2017-Oct-16 11:11N 54°47' E 012°42'312.0
2017-Oct-16 10:58N 54°48' E 012°46'1011.8
2017-Oct-16 10:07N 54°52' E 013°02'2212.3
2017-Oct-16 08:21N 54°59' E 013°38'711.8
2017-Oct-16 07:46N 55°01' E 013°49'712.2
2017-Oct-16 07:11N 55°04' E 014°01'312.2
2017-Oct-16 06:58N 55°05' E 014°05'612.3
2017-Oct-16 06:31N 55°09' E 014°11'812.5
2017-Oct-16 05:54N 55°15' E 014°20'512.5
2017-Oct-16 05:30N 55°19' E 014°25'612.5
2017-Oct-16 05:00N 55°24' E 014°32'812.2
2017-Oct-16 04:21N 55°29' E 014°43'612.2
2017-Oct-16 03:53N 55°32' E 014°51'812.2
2017-Oct-16 03:14N 55°35' E 015°04'312.4
2017-Oct-16 03:00N 55°37' E 015°08'612.2
2017-Oct-16 02:30N 55°39' E 015°18'712.1
2017-Oct-16 01:55N 55°41' E 015°31'512.5
2017-Oct-16 01:31N 55°42' E 015°39'612.7
2017-Oct-16 01:00N 55°43' E 015°50'612.7
2017-Oct-16 00:30N 55°45' E 016°01'612.7
2017-Oct-16 00:00N 55°47' E 016°12'612.6
2017-Oct-15 23:31N 55°48' E 016°23'  

Dump ship's entire track history